sensor_id;sensor_type;location;lat;lon;timestamp;temperature;humidity
20180;DHT22;10249;48.900;9.090;2023-05-31T00:50:48;14.60;99.90
20180;DHT22;10249;48.900;9.090;2023-05-31T01:13:04;14.50;99.90
20180;DHT22;10249;48.900;9.090;2023-05-31T01:26:01;14.50;99.90
20180;DHT22;10249;48.900;9.090;2023-05-31T01:28:33;14.50;99.90
20180;DHT22;10249;48.900;9.090;2023-05-31T01:31:04;14.50;99.90
20180;DHT22;10249;48.900;9.090;2023-05-31T01:36:01;14.30;99.90
20180;DHT22;10249;48.900;9.090;2023-05-31T01:38:28;14.40;99.90
20180;DHT22;10249;48.900;9.090;2023-05-31T01:40:56;14.40;99.90
20180;DHT22;10249;48.900;9.090;2023-05-31T01:43:25;14.50;99.90
20180;DHT22;10249;48.900;9.090;2023-05-31T01:45:54;14.30;99.90
20180;DHT22;10249;48.900;9.090;2023-05-31T01:48:22;14.20;99.90
20180;DHT22;10249;48.900;9.090;2023-05-31T01:50:49;14.40;99.90
20180;DHT22;10249;48.900;9.090;2023-05-31T01:53:17;14.30;99.90
20180;DHT22;10249;48.900;9.090;2023-05-31T01:55:44;14.30;99.90
20180;DHT22;10249;48.900;9.090;2023-05-31T01:58:12;14.20;99.90
20180;DHT22;10249;48.900;9.090;2023-05-31T02:00:40;14.20;99.90
20180;DHT22;10249;48.900;9.090;2023-05-31T02:03:09;14.20;99.90
20180;DHT22;10249;48.900;9.090;2023-05-31T02:05:36;14.10;99.90
20180;DHT22;10249;48.900;9.090;2023-05-31T02:10:30;14.10;99.90
20180;DHT22;10249;48.900;9.090;2023-05-31T02:17:51;13.80;99.90
20180;DHT22;10249;48.900;9.090;2023-05-31T05:49:23;14.60;99.90
20180;DHT22;10249;48.900;9.090;2023-05-31T05:51:50;14.90;99.90
20180;DHT22;10249;48.900;9.090;2023-05-31T05:54:17;15.10;99.90
20180;DHT22;10249;48.900;9.090;2023-05-31T05:56:43;15.10;99.90
20180;DHT22;10249;48.900;9.090;2023-05-31T05:59:10;15.30;99.90
20180;DHT22;10249;48.900;9.090;2023-05-31T06:01:37;15.20;99.90
20180;DHT22;10249;48.900;9.090;2023-05-31T06:04:05;15.40;99.90
20180;DHT22;10249;48.900;9.090;2023-05-31T06:06:31;15.70;99.90
20180;DHT22;10249;48.900;9.090;2023-05-31T06:08:58;15.60;99.90
20180;DHT22;10249;48.900;9.090;2023-05-31T06:11:25;15.70;99.90
20180;DHT22;10249;48.900;9.090;2023-05-31T06:13:52;15.80;99.90
20180;DHT22;10249;48.900;9.090;2023-05-31T06:16:23;15.90;99.90
20180;DHT22;10249;48.900;9.090;2023-05-31T06:18:50;15.80;99.90
20180;DHT22;10249;48.900;9.090;2023-05-31T06:21:18;16.00;99.90
20180;DHT22;10249;48.900;9.090;2023-05-31T06:23:45;16.00;99.90
20180;DHT22;10249;48.900;9.090;2023-05-31T06:26:12;16.10;99.90
20180;DHT22;10249;48.900;9.090;2023-05-31T06:28:38;16.20;99.90
20180;DHT22;10249;48.900;9.090;2023-05-31T06:31:05;16.30;99.90
20180;DHT22;10249;48.900;9.090;2023-05-31T06:33:34;16.40;99.90
20180;DHT22;10249;48.900;9.090;2023-05-31T06:36:00;16.50;99.90
20180;DHT22;10249;48.900;9.090;2023-05-31T06:38:29;16.50;99.90
20180;DHT22;10249;48.900;9.090;2023-05-31T06:40:55;16.60;99.90
20180;DHT22;10249;48.900;9.090;2023-05-31T06:43:22;16.80;99.90
20180;DHT22;10249;48.900;9.090;2023-05-31T06:45:50;16.90;99.90
20180;DHT22;10249;48.900;9.090;2023-05-31T06:48:17;17.00;99.90
20180;DHT22;10249;48.900;9.090;2023-05-31T06:50:44;17.20;99.90
20180;DHT22;10249;48.900;9.090;2023-05-31T06:53:10;17.20;99.90
20180;DHT22;10249;48.900;9.090;2023-05-31T06:55:39;17.20;99.90
20180;DHT22;10249;48.900;9.090;2023-05-31T06:58:06;17.50;99.90
20180;DHT22;10249;48.900;9.090;2023-05-31T07:00:33;17.60;99.90
20180;DHT22;10249;48.900;9.090;2023-05-31T07:03:00;17.90;99.90
20180;DHT22;10249;48.900;9.090;2023-05-31T07:05:28;17.90;99.90
20180;DHT22;10249;48.900;9.090;2023-05-31T07:07:54;18.00;99.90
20180;DHT22;10249;48.900;9.090;2023-05-31T07:10:21;18.00;99.90
20180;DHT22;10249;48.900;9.090;2023-05-31T07:12:49;18.10;99.90
20180;DHT22;10249;48.900;9.090;2023-05-31T07:15:16;18.20;99.90
20180;DHT22;10249;48.900;9.090;2023-05-31T07:17:43;18.30;99.90
20180;DHT22;10249;48.900;9.090;2023-05-31T07:20:11;18.30;99.90
20180;DHT22;10249;48.900;9.090;2023-05-31T07:22:38;18.40;99.90
20180;DHT22;10249;48.900;9.090;2023-05-31T07:25:05;18.80;99.90
20180;DHT22;10249;48.900;9.090;2023-05-31T07:27:32;18.70;99.90
20180;DHT22;10249;48.900;9.090;2023-05-31T07:32:27;18.90;99.90
20180;DHT22;10249;48.900;9.090;2023-05-31T07:34:54;19.00;99.90
20180;DHT22;10249;48.900;9.090;2023-05-31T07:37:21;19.10;99.90
20180;DHT22;10249;48.900;9.090;2023-05-31T07:39:48;19.10;99.90
20180;DHT22;10249;48.900;9.090;2023-05-31T07:42:14;19.30;99.90
20180;DHT22;10249;48.900;9.090;2023-05-31T07:44:41;19.60;99.90
20180;DHT22;10249;48.900;9.090;2023-05-31T07:47:09;19.70;99.90
20180;DHT22;10249;48.900;9.090;2023-05-31T07:49:36;19.70;99.90
20180;DHT22;10249;48.900;9.090;2023-05-31T07:52:03;20.00;99.90
20180;DHT22;10249;48.900;9.090;2023-05-31T07:54:30;19.90;99.90
20180;DHT22;10249;48.900;9.090;2023-05-31T07:56:56;20.00;99.90
20180;DHT22;10249;48.900;9.090;2023-05-31T07:59:23;19.90;99.90
20180;DHT22;10249;48.900;9.090;2023-05-31T08:01:51;20.20;99.90
20180;DHT22;10249;48.900;9.090;2023-05-31T08:04:20;20.20;99.90
20180;DHT22;10249;48.900;9.090;2023-05-31T08:06:46;20.20;99.90
20180;DHT22;10249;48.900;9.090;2023-05-31T08:09:13;20.20;99.90
20180;DHT22;10249;48.900;9.090;2023-05-31T08:11:40;20.30;99.90
20180;DHT22;10249;48.900;9.090;2023-05-31T08:14:08;20.50;99.90
20180;DHT22;10249;48.900;9.090;2023-05-31T08:16:35;20.70;99.90
20180;DHT22;10249;48.900;9.090;2023-05-31T08:19:02;20.50;99.90
20180;DHT22;10249;48.900;9.090;2023-05-31T08:21:30;20.80;99.90
20180;DHT22;10249;48.900;9.090;2023-05-31T08:23:57;20.90;99.90
20180;DHT22;10249;48.900;9.090;2023-05-31T08:26:26;21.20;99.90
20180;DHT22;10249;48.900;9.090;2023-05-31T08:28:52;21.10;99.90
20180;DHT22;10249;48.900;9.090;2023-05-31T08:31:19;21.10;99.90
20180;DHT22;10249;48.900;9.090;2023-05-31T08:33:53;21.30;99.90
20180;DHT22;10249;48.900;9.090;2023-05-31T08:36:21;21.10;99.90
20180;DHT22;10249;48.900;9.090;2023-05-31T08:38:49;21.50;99.90
20180;DHT22;10249;48.900;9.090;2023-05-31T08:41:34;21.60;99.90
20180;DHT22;10249;48.900;9.090;2023-05-31T08:44:05;21.90;99.90
20180;DHT22;10249;48.900;9.090;2023-05-31T08:46:32;21.90;99.90
20180;DHT22;10249;48.900;9.090;2023-05-31T08:53:58;21.90;99.90
20180;DHT22;10249;48.900;9.090;2023-05-31T08:56:28;22.00;99.90
20180;DHT22;10249;48.900;9.090;2023-05-31T08:58:55;22.10;99.90
20180;DHT22;10249;48.900;9.090;2023-05-31T09:01:22;22.30;99.90
20180;DHT22;10249;48.900;9.090;2023-05-31T09:03:50;22.10;99.90
20180;DHT22;10249;48.900;9.090;2023-05-31T09:06:19;22.00;99.90
20180;DHT22;10249;48.900;9.090;2023-05-31T09:08:45;21.90;99.90
20180;DHT22;10249;48.900;9.090;2023-05-31T09:11:15;22.10;99.90
20180;DHT22;10249;48.900;9.090;2023-05-31T09:13:42;22.00;99.90
20180;DHT22;10249;48.900;9.090;2023-05-31T09:16:10;21.80;99.90
20180;DHT22;10249;48.900;9.090;2023-05-31T09:18:38;22.20;99.90
20180;DHT22;10249;48.900;9.090;2023-05-31T11:00:58;25.40;99.90
20180;DHT22;10249;48.900;9.090;2023-05-31T11:03:30;25.60;99.90
20180;DHT22;10249;48.900;9.090;2023-05-31T11:06:00;25.60;99.90
20180;DHT22;10249;48.900;9.090;2023-05-31T11:18:48;25.00;99.90
20180;DHT22;10249;48.900;9.090;2023-05-31T11:21:49;25.50;99.90
